Time;durP1;ratioP1;P1;durP2;ratioP2;P2;SDS_P1;SDS_P2;PMS_P1;PMS_P2;Temp;Humidity;BMP_temperature;BMP_pressure;BME280_temperature;BME280_humidity;BME280_pressure;Samples;Min_cycle;Max_cycle;Signal;HPM_P1;HPM_P2
2022/06/01 00:01:32;;;;;;;2.45;1.25;;;;;;;15.37;96.88;98596.53;5094315;28;20051;-69
2022/06/01 00:04:19;;;;;;;2.25;0.80;;;;;;;15.09;99.07;98587.69;5106819;28;20043;-70
2022/06/01 00:07:04;;;;;;;6.43;1.15;;;;;;;15.36;96.30;98586.97;5109667;28;20040;-70
2022/06/01 00:09:49;;;;;;;1.60;0.90;;;;;;;15.07;98.86;98592.25;5109671;28;20163;-69
2022/06/01 00:12:35;;;;;;;1.77;0.70;;;;;;;14.89;100.00;98591.16;5096353;28;20423;-69
2022/06/01 00:15:21;;;;;;;2.25;0.90;;;;;;;14.72;100.00;98597.88;5137663;27;20040;-70
2022/06/01 00:18:06;;;;;;;2.42;0.70;;;;;;;14.70;100.00;98601.63;5105740;28;20412;-68
2022/06/01 00:20:54;;;;;;;2.08;1.02;;;;;;;14.97;99.46;98615.97;5105201;28;20034;-70
2022/06/01 00:23:38;;;;;;;1.15;0.80;;;;;;;14.77;100.00;98622.03;5121196;28;20466;-71
2022/06/01 00:26:23;;;;;;;2.05;0.80;;;;;;;14.73;100.00;98633.84;5104392;28;20035;-69
2022/06/01 00:29:08;;;;;;;1.13;0.55;;;;;;;14.48;100.00;98643.03;5098490;28;20040;-69
2022/06/01 00:31:52;;;;;;;1.40;0.93;;;;;;;13.82;100.00;98640.69;5099672;28;20047;-70
2022/06/01 00:34:39;;;;;;;1.42;0.73;;;;;;;13.63;100.00;98636.09;5099526;28;20046;-68
2022/06/01 00:37:24;;;;;;;1.35;0.90;;;;;;;13.25;100.00;98633.03;5098367;28;20101;-69
2022/06/01 00:40:10;;;;;;;1.20;0.80;;;;;;;13.09;100.00;98623.75;5098299;28;20047;-69
2022/06/01 00:43:01;;;;;;;3.30;1.00;;;;;;;13.08;100.00;98632.63;5099304;28;20088;-68
2022/06/01 00:45:46;;;;;;;2.08;0.95;;;;;;;13.03;100.00;98629.53;5114941;28;20043;-69
2022/06/01 00:48:36;;;;;;;3.80;0.90;;;;;;;13.14;100.00;98626.00;5113246;28;20059;-69
2022/06/01 00:51:24;;;;;;;4.93;0.90;;;;;;;12.75;100.00;98635.22;5101413;28;20040;-69
2022/06/01 00:54:11;;;;;;;1.48;1.00;;;;;;;12.83;100.00;98624.06;5094148;28;20052;-70
2022/06/01 00:56:59;;;;;;;2.08;0.90;;;;;;;12.71;100.00;98618.03;5112941;28;20040;-69
2022/06/01 00:59:45;;;;;;;1.70;0.82;;;;;;;12.63;100.00;98615.16;5097634;28;20120;-69
2022/06/01 01:02:32;;;;;;;1.45;0.90;;;;;;;12.69;100.00;98614.66;5104560;28;20057;-69
2022/06/01 01:05:19;;;;;;;2.83;0.80;;;;;;;12.67;100.00;98633.19;5093353;28;20044;-70
2022/06/01 01:08:04;;;;;;;2.22;0.90;;;;;;;12.56;100.00;98620.91;5121467;27;20047;-69
2022/06/01 01:10:50;;;;;;;2.13;1.05;;;;;;;12.53;100.00;98625.56;5094178;28;20048;-69
2022/06/01 01:13:37;;;;;;;1.80;0.93;;;;;;;12.47;100.00;98618.19;5097441;28;20092;-70
2022/06/01 01:16:29;;;;;;;1.60;1.00;;;;;;;12.48;100.00;98610.19;5100745;28;20040;-69
2022/06/01 01:19:31;;;;;;;2.30;1.13;;;;;;;12.41;100.00;98603.72;5101278;28;20118;-70
2022/06/01 01:22:27;;;;;;;4.53;1.20;;;;;;;12.49;100.00;98595.22;5098461;28;20031;-69
2022/06/01 01:25:28;;;;;;;1.67;1.00;;;;;;;12.62;100.00;98608.22;5112946;28;20039;-69
2022/06/01 01:28:14;;;;;;;3.75;0.90;;;;;;;12.68;100.00;98608.56;5108356;28;20092;-71
2022/06/01 01:31:05;;;;;;;1.63;1.17;;;;;;;12.56;100.00;98620.91;5108492;28;20102;-70
2022/06/01 01:33:53;;;;;;;1.83;0.98;;;;;;;12.64;100.00;98632.59;5114069;28;20043;-68
2022/06/01 01:36:48;;;;;;;2.97;1.00;;;;;;;12.61;100.00;98623.19;5107337;28;20490;-68
2022/06/01 01:39:35;;;;;;;1.75;1.00;;;;;;;12.54;100.00;98611.47;5105119;28;20040;-68
2022/06/01 01:42:20;;;;;;;3.20;0.90;;;;;;;12.50;100.00;98618.75;5096655;28;20032;-69
2022/06/01 01:45:32;;;;;;;1.20;0.82;;;;;;;12.40;100.00;98608.13;5113614;28;20043;-69
2022/06/01 01:48:17;;;;;;;1.40;1.00;;;;;;;12.63;100.00;98610.72;5108539;28;20046;-70
2022/06/01 01:51:03;;;;;;;2.15;0.90;;;;;;;12.64;100.00;98608.94;5113127;28;20104;-70
2022/06/01 01:53:48;;;;;;;2.00;0.80;;;;;;;12.60;100.00;98604.91;5099749;28;20059;-70
2022/06/01 01:56:42;;;;;;;2.55;0.93;;;;;;;12.34;100.00;98595.47;5102443;28;20427;-69
2022/06/01 01:59:54;;;;;;;1.95;1.10;;;;;;;12.42;100.00;98600.16;5098546;28;20036;-69
2022/06/01 02:03:07;;;;;;;2.65;1.08;;;;;;;12.53;100.00;98608.00;5113549;28;20105;-67
2022/06/01 02:06:09;;;;;;;1.38;1.00;;;;;;;12.52;100.00;98611.59;5112209;28;20044;-68
2022/06/01 02:09:00;;;;;;;1.73;1.10;;;;;;;12.38;100.00;98617.94;5102271;28;20044;-68
2022/06/01 02:15:20;;;;;;;3.33;1.20;;;;;;;12.45;100.00;98605.16;5101277;28;20043;-69
2022/06/01 02:18:12;;;;;;;2.47;1.10;;;;;;;12.47;100.00;98607.66;5099022;28;20031;-70
2022/06/01 02:21:02;;;;;;;1.77;1.10;;;;;;;12.44;100.00;98598.22;5100236;28;20040;-69
2022/06/01 02:23:49;;;;;;;1.10;0.90;;;;;;;12.66;100.00;98613.13;5101407;28;20032;-69
2022/06/01 02:26:35;;;;;;;2.15;0.93;;;;;;;12.63;100.00;98596.78;5117085;28;20468;-69
2022/06/01 02:29:28;;;;;;;1.63;1.10;;;;;;;12.66;100.00;98609.66;5098912;28;20066;-69
2022/06/01 02:32:15;;;;;;;1.92;1.10;;;;;;;12.60;100.00;98599.66;5109155;28;20089;-71
2022/06/01 02:35:04;;;;;;;3.03;1.33;;;;;;;12.60;100.00;98610.97;5102545;28;20081;-68
2022/06/01 02:37:54;;;;;;;2.03;0.90;;;;;;;12.62;100.00;98603.81;5113111;28;20039;-69
2022/06/01 02:40:39;;;;;;;3.35;0.90;;;;;;;12.48;100.00;98604.06;5098395;28;20103;-69
2022/06/01 02:43:26;;;;;;;2.58;1.23;;;;;;;12.46;100.00;98604.19;5112772;28;20043;-69
2022/06/01 02:46:10;;;;;;;2.03;0.82;;;;;;;12.53;100.00;98610.63;5091803;28;20111;-69
2022/06/01 02:48:55;;;;;;;2.38;0.88;;;;;;;12.71;100.00;98611.91;5092131;28;20035;-68
2022/06/01 02:51:41;;;;;;;1.45;0.90;;;;;;;12.80;100.00;98627.78;5084288;28;20093;-69
2022/06/01 02:54:26;;;;;;;1.23;0.90;;;;;;;12.80;100.00;98621.69;5098926;28;20085;-68
2022/06/01 02:57:14;;;;;;;2.20;0.95;;;;;;;12.75;100.00;98629.94;5097138;28;20494;-68
2022/06/01 02:59:59;;;;;;;1.23;0.80;;;;;;;12.88;100.00;98658.72;5086630;28;20127;-70
2022/06/01 03:02:52;;;;;;;5.32;1.10;;;;;;;12.95;100.00;98664.31;5076967;28;20042;-70
2022/06/01 03:05:40;;;;;;;1.85;1.00;;;;;;;12.71;100.00;98646.09;5091192;28;20394;-70
2022/06/01 03:08:25;;;;;;;2.42;1.08;;;;;;;12.71;100.00;98646.09;5107694;28;20054;-69
2022/06/01 03:11:10;;;;;;;1.80;1.05;;;;;;;12.67;100.00;98656.84;5105075;28;20493;-69
2022/06/01 03:13:55;;;;;;;1.42;1.00;;;;;;;12.86;100.00;98659.81;5119249;27;20040;-69
2022/06/01 03:16:40;;;;;;;2.65;1.10;;;;;;;12.73;100.00;98652.06;5098912;28;20043;-70
2022/06/01 03:19:26;;;;;;;1.88;1.10;;;;;;;12.70;100.00;98655.75;5096389;28;20433;-69
2022/06/01 03:22:11;;;;;;;1.33;1.00;;;;;;;12.72;100.00;98660.88;5095102;28;20050;-71
2022/06/01 03:25:03;;;;;;;1.80;0.98;;;;;;;12.97;100.00;98665.03;5098149;28;20050;-69
2022/06/01 03:27:51;;;;;;;1.45;0.95;;;;;;;13.14;100.00;98673.34;5109497;28;20024;-70
2022/06/01 03:30:35;;;;;;;1.60;1.10;;;;;;;13.23;100.00;98677.88;5111535;28;20080;-69
2022/06/01 03:33:20;;;;;;;2.20;1.20;;;;;;;13.04;100.00;98684.63;5107758;28;20039;-69
2022/06/01 03:36:05;;;;;;;2.35;1.00;;;;;;;13.16;100.00;98682.81;5107135;28;20044;-69
2022/06/01 03:38:50;;;;;;;3.63;1.00;;;;;;;13.22;100.00;98685.91;5096061;28;20528;-69
2022/06/01 03:41:35;;;;;;;1.70;1.20;;;;;;;13.16;100.00;98689.84;5109474;28;20467;-69
2022/06/01 03:47:25;;;;;;;2.90;1.20;;;;;;;13.17;100.00;98687.09;5114377;28;20044;-69
2022/06/01 03:50:11;;;;;;;2.10;1.20;;;;;;;13.13;100.00;98690.94;5116168;28;20043;-69
2022/06/01 03:52:56;;;;;;;1.88;1.20;;;;;;;13.27;100.00;98691.59;5115607;28;20035;-69
2022/06/01 03:55:42;;;;;;;2.30;1.50;;;;;;;13.19;100.00;98694.84;5100397;28;20093;-70
2022/06/01 03:58:27;;;;;;;1.67;1.17;;;;;;;13.30;100.00;98700.09;5106972;28;20031;-69
2022/06/01 04:01:11;;;;;;;2.78;1.48;;;;;;;13.24;100.00;98708.47;5093956;28;20486;-69
2022/06/01 04:03:57;;;;;;;1.23;1.02;;;;;;;13.24;100.00;98695.31;5106387;28;20047;-68
2022/06/01 04:06:41;;;;;;;1.77;1.30;;;;;;;13.35;100.00;98697.06;5113778;28;20031;-68
2022/06/01 04:09:29;;;;;;;1.30;0.95;;;;;;;13.36;100.00;98700.56;5112370;28;20066;-71
2022/06/01 04:12:14;;;;;;;3.50;1.60;;;;;;;13.33;100.00;98698.16;5103344;28;20035;-69
2022/06/01 04:14:59;;;;;;;1.77;1.15;;;;;;;13.45;100.00;98696.34;5114901;28;20040;-69
2022/06/01 04:17:43;;;;;;;2.17;1.10;;;;;;;13.69;100.00;98696.16;5113812;28;20044;-70
2022/06/01 04:20:29;;;;;;;2.90;1.38;;;;;;;13.65;100.00;98692.94;5093586;28;20115;-69
2022/06/01 04:23:14;;;;;;;2.05;1.23;;;;;;;13.62;100.00;98698.44;5100092;28;20050;-69
2022/06/01 04:25:58;;;;;;;3.20;1.52;;;;;;;13.72;100.00;98692.41;5115293;28;20095;-69
2022/06/01 04:28:44;;;;;;;4.13;1.80;;;;;;;13.68;100.00;98689.19;5109691;28;20107;-68
2022/06/01 04:31:32;;;;;;;2.80;1.50;;;;;;;13.52;100.00;98703.63;5114741;28;20040;-69
2022/06/01 04:34:16;;;;;;;2.42;1.60;;;;;;;13.45;100.00;98702.44;5095079;28;20130;-71
2022/06/01 04:37:01;;;;;;;2.55;1.50;;;;;;;13.72;100.00;98702.94;5097614;28;20085;-70
2022/06/01 04:39:47;;;;;;;2.92;1.63;;;;;;;13.98;100.00;98705.22;5112947;28;20039;-69
2022/06/01 04:42:33;;;;;;;3.08;1.80;;;;;;;13.94;100.00;98706.44;5106859;28;20046;-70
2022/06/01 04:45:24;;;;;;;2.10;1.25;;;;;;;13.93;100.00;98710.88;5096471;28;20386;-70
2022/06/01 04:48:10;;;;;;;2.80;1.73;;;;;;;13.94;100.00;98703.81;5103403;28;20043;-69
2022/06/01 04:50:57;;;;;;;1.92;1.08;;;;;;;14.00;100.00;98696.19;5093696;28;20059;-68
2022/06/01 04:53:43;;;;;;;2.78;1.38;;;;;;;14.08;100.00;98700.00;5107104;28;20052;-68
2022/06/01 04:56:31;;;;;;;1.85;1.48;;;;;;;14.26;100.00;98697.63;5113648;28;20044;-69
2022/06/01 04:59:17;;;;;;;2.15;1.33;;;;;;;14.59;100.00;98694.84;5108296;28;20042;-68
2022/06/01 05:02:02;;;;;;;2.15;1.55;;;;;;;14.61;100.00;98695.53;5103393;28;20518;-68
2022/06/01 05:04:47;;;;;;;2.22;1.00;;;;;;;14.95;100.00;98697.88;5108706;28;20048;-71
2022/06/01 05:07:32;;;;;;;3.58;1.10;;;;;;;15.23;100.00;98692.81;5114933;28;20035;-70
2022/06/01 05:10:17;;;;;;;2.58;1.50;;;;;;;14.94;100.00;98704.13;5092342;28;20043;-68
2022/06/01 05:13:03;;;;;;;2.83;1.40;;;;;;;15.04;100.00;98701.53;5114066;28;20058;-68
2022/06/01 05:15:54;;;;;;;1.67;1.23;;;;;;;15.31;100.00;98715.03;5115358;28;20051;-70
2022/06/01 05:18:39;;;;;;;2.35;1.23;;;;;;;15.42;100.00;98716.72;5092986;28;20417;-71
2022/06/01 05:21:24;;;;;;;1.77;1.15;;;;;;;15.58;100.00;98716.16;5099242;28;20031;-68
2022/06/01 05:24:09;;;;;;;2.10;1.25;;;;;;;15.69;100.00;98712.53;5114421;28;20539;-71
2022/06/01 05:26:54;;;;;;;2.67;1.10;;;;;;;15.84;100.00;98719.06;5106893;28;20039;-68
2022/06/01 05:29:40;;;;;;;1.42;0.93;;;;;;;15.81;96.56;98716.72;5088651;28;20447;-69
2022/06/01 05:32:24;;;;;;;1.30;1.10;;;;;;;15.84;98.77;98719.06;5105516;28;20036;-69
2022/06/01 05:35:10;;;;;;;0.90;0.70;;;;;;;16.13;96.83;98717.38;5110602;28;20036;-69
2022/06/01 05:37:55;;;;;;;2.67;1.13;;;;;;;15.96;95.51;98718.94;5104016;28;20038;-69
2022/06/01 05:40:40;;;;;;;0.82;0.60;;;;;;;16.18;95.24;98725.72;5113614;28;20027;-69
2022/06/01 05:43:25;;;;;;;1.35;0.70;;;;;;;16.35;93.16;98725.97;5113043;28;20417;-69
2022/06/01 05:46:10;;;;;;;1.95;1.08;;;;;;;16.42;94.01;98731.50;5097145;28;20414;-70
2022/06/01 05:48:56;;;;;;;5.65;0.77;;;;;;;16.85;92.13;98740.66;5092209;28;20119;-71
2022/06/01 05:51:41;;;;;;;2.13;1.00;;;;;;;16.68;95.42;98738.78;5087882;28;20036;-69
2022/06/01 05:54:25;;;;;;;1.50;1.10;;;;;;;16.60;95.66;98737.69;5096797;28;20126;-69
2022/06/01 05:57:12;;;;;;;0.80;0.52;;;;;;;16.98;92.01;98742.97;5092499;28;20104;-68
2022/06/01 05:59:57;;;;;;;2.72;1.10;;;;;;;17.34;91.90;98746.69;5112234;28;20036;-69
2022/06/01 06:02:43;;;;;;;3.13;1.45;;;;;;;17.22;94.42;98751.34;5112353;28;20031;-73
2022/06/01 06:08:31;;;;;;;1.73;1.08;;;;;;;17.34;89.54;98750.19;5093050;28;20448;-69
2022/06/01 06:11:19;;;;;;;0.85;0.50;;;;;;;17.52;86.87;98754.66;5095176;28;20036;-68
2022/06/01 06:14:05;;;;;;;9.90;4.68;;;;;;;17.77;85.06;98752.22;5108981;28;20092;-52
2022/06/01 06:16:51;;;;;;;7.97;1.95;;;;;;;17.92;82.34;98759.63;5112246;28;20027;-63
2022/06/01 06:19:38;;;;;;;2.13;0.93;;;;;;;18.00;82.18;98769.47;5112567;28;20051;-64
2022/06/01 06:22:25;;;;;;;1.35;0.90;;;;;;;17.80;81.48;98767.81;5112914;28;20040;-63
2022/06/01 06:25:10;;;;;;;2.75;1.00;;;;;;;17.74;82.08;98768.41;5119671;28;20047;-63
2022/06/01 06:27:55;;;;;;;1.98;1.00;;;;;;;17.39;82.24;98762.13;5110609;28;20467;-64
2022/06/01 06:30:39;;;;;;;1.58;1.00;;;;;;;17.49;84.83;98762.91;5107074;28;20046;-61
2022/06/01 06:33:26;;;;;;;2.38;1.27;;;;;;;17.28;85.70;98756.06;5097984;28;20040;-65
2022/06/01 06:36:14;;;;;;;13.38;1.30;;;;;;;17.82;82.70;98765.03;5104299;28;20047;-64
2022/06/01 06:38:58;;;;;;;1.98;1.00;;;;;;;18.06;82.26;98764.38;5105438;28;20114;-61
2022/06/01 06:41:43;;;;;;;2.15;1.15;;;;;;;18.34;80.89;98764.25;5108239;28;20056;-63
2022/06/01 06:44:28;;;;;;;3.78;1.20;;;;;;;18.60;80.17;98757.31;5106531;28;20043;-62
2022/06/01 06:47:13;;;;;;;4.82;1.27;;;;;;;18.86;79.54;98763.53;5112590;28;20442;-62
2022/06/01 06:49:58;;;;;;;3.40;1.30;;;;;;;19.02;77.34;98765.44;5109321;28;20132;-60
2022/06/01 06:52:43;;;;;;;2.55;1.42;;;;;;;19.16;77.02;98770.16;5103339;28;20425;-63
2022/06/01 06:55:28;;;;;;;2.95;1.25;;;;;;;19.23;78.31;98772.16;5100218;28;20105;-63
2022/06/01 06:58:13;;;;;;;2.38;1.33;;;;;;;18.94;77.10;98774.19;5105406;28;20082;-63
2022/06/01 07:00:58;;;;;;;3.45;1.48;;;;;;;18.66;78.60;98779.69;5097087;28;20279;-60
2022/06/01 07:03:43;;;;;;;3.40;1.38;;;;;;;18.88;77.65;98769.53;5096017;28;20044;-62
2022/06/01 07:06:29;;;;;;;1.33;1.05;;;;;;;19.49;74.75;98782.69;5097995;28;20028;-63
2022/06/01 07:09:13;;;;;;;1.77;1.17;;;;;;;19.25;75.80;98780.81;5099281;28;20036;-63
2022/06/01 07:11:58;;;;;;;2.78;1.40;;;;;;;19.76;73.83;98787.91;5090485;28;20111;-64
2022/06/01 07:14:43;;;;;;;1.88;1.33;;;;;;;19.97;73.46;98783.91;5106593;28;20069;-63
2022/06/01 07:17:28;;;;;;;4.38;1.40;;;;;;;20.56;70.80;98782.91;5112073;28;20490;-63
2022/06/01 07:20:13;;;;;;;2.20;1.45;;;;;;;20.18;73.19;98778.97;5098205;28;20051;-63
2022/06/01 07:22:58;;;;;;;1.70;1.20;;;;;;;21.20;70.38;98793.69;5109720;28;20055;-63
2022/06/01 07:25:44;;;;;;;2.60;1.40;;;;;;;20.63;69.16;98794.50;5105921;28;20577;-64
2022/06/01 07:28:28;;;;;;;2.75;1.70;;;;;;;20.58;68.46;98788.84;5135359;27;20106;-65
2022/06/01 07:31:14;;;;;;;3.83;1.70;;;;;;;20.17;69.50;98795.91;5105804;28;20044;-63
2022/06/01 07:33:58;;;;;;;3.70;1.58;;;;;;;19.98;69.53;98788.22;5109298;28;20443;-62
2022/06/01 07:36:45;;;;;;;2.38;1.50;;;;;;;20.51;69.81;98787.88;5102653;28;20032;-62
2022/06/01 07:45:46;;;;;;;3.15;1.67;;;;;;;20.46;67.43;98784.91;5108618;28;20086;-63
2022/06/01 07:48:33;;;;;;;3.38;1.65;;;;;;;19.98;69.49;98791.72;5108612;28;20035;-63
2022/06/01 07:51:18;;;;;;;2.20;1.50;;;;;;;19.95;69.84;98784.09;5108733;28;20035;-64
2022/06/01 07:54:03;;;;;;;2.25;1.70;;;;;;;20.65;67.75;98794.34;5103508;28;20083;-62
2022/06/01 07:56:48;;;;;;;2.75;1.23;;;;;;;21.13;66.50;98797.03;5093094;28;20036;-63
2022/06/01 07:59:34;;;;;;;3.03;1.63;;;;;;;21.27;65.35;98805.28;5093751;28;20043;-62
2022/06/01 08:02:19;;;;;;;2.03;1.40;;;;;;;20.70;65.80;98802.63;5099326;28;20028;-63
2022/06/01 08:05:07;;;;;;;3.03;1.20;;;;;;;21.22;64.42;98811.13;5096238;28;20058;-63
2022/06/01 08:07:53;;;;;;;2.08;1.30;;;;;;;21.84;63.10;98821.97;5109541;28;20066;-64
2022/06/01 08:10:38;;;;;;;3.67;2.22;;;;;;;21.35;62.64;98815.09;5094782;28;20064;-63
2022/06/01 08:13:23;;;;;;;1.95;1.30;;;;;;;21.93;61.15;98813.91;5096559;28;20114;-64
2022/06/01 08:16:08;;;;;;;3.17;1.80;;;;;;;22.26;60.13;98816.31;5108138;28;20066;-63
2022/06/01 08:18:54;;;;;;;2.25;1.33;;;;;;;21.85;60.20;98818.31;5103875;28;20027;-63
2022/06/01 08:21:39;;;;;;;2.80;1.33;;;;;;;22.19;60.01;98823.38;5110938;28;20059;-66
2022/06/01 08:24:24;;;;;;;2.65;1.50;;;;;;;22.67;56.40;98825.78;5107130;28;20107;-64
2022/06/01 08:27:08;;;;;;;4.80;1.45;;;;;;;22.84;55.48;98814.94;5117436;28;20047;-58
2022/06/01 08:29:53;;;;;;;2.70;1.60;;;;;;;22.73;56.57;98816.22;5105963;28;20040;-64
2022/06/01 08:32:39;;;;;;;3.60;1.33;;;;;;;23.13;55.82;98818.59;5114911;27;20036;-65
2022/06/01 08:35:31;;;;;;;2.03;1.27;;;;;;;23.17;53.03;98817.22;5108033;28;20040;-65
2022/06/01 08:38:16;;;;;;;2.50;1.42;;;;;;;23.91;52.18;98822.56;5112614;28;20047;-65
2022/06/01 08:41:08;;;;;;;2.50;1.13;;;;;;;23.15;53.73;98811.22;5114851;28;20036;-64
2022/06/01 08:43:56;;;;;;;1.90;1.40;;;;;;;23.84;51.41;98809.16;5100101;28;20031;-64
2022/06/01 08:46:41;;;;;;;2.05;1.20;;;;;;;24.27;51.80;98823.53;5111479;28;20036;-63
2022/06/01 08:49:30;;;;;;;1.80;1.23;;;;;;;24.15;50.76;98825.03;5114258;28;20093;-64
2022/06/01 08:52:14;;;;;;;3.75;1.30;;;;;;;23.94;51.53;98826.72;5114323;28;20085;-63
2022/06/01 08:54:59;;;;;;;1.67;1.10;;;;;;;24.02;49.97;98825.75;5113941;28;20402;-63
2022/06/01 08:58:04;;;;;;;1.73;0.93;;;;;;;23.55;50.90;98828.78;5092300;28;20532;-63
2022/06/01 09:00:59;;;;;;;2.33;0.90;;;;;;;23.46;50.87;98823.56;5103246;28;20067;-62
2022/06/01 09:04:00;;;;;;;2.10;0.90;;;;;;;24.30;49.25;98825.00;5112648;28;20043;-66
2022/06/01 09:06:48;;;;;;;;;;;;;;;23.88;48.63;98822.94;5103401;28;20398;-67
2022/06/01 09:10:06;;;;;;;3.08;1.20;;;;;;;24.26;48.88;98823.72;5111668;28;19916;-66
2022/06/01 09:13:02;;;;;;;3.45;1.23;;;;;;;23.84;49.85;98827.88;5095608;28;20088;-64
2022/06/01 09:15:55;;;;;;;2.00;1.17;;;;;;;23.46;51.51;98828.91;5104109;28;20047;-64
2022/06/01 09:18:47;;;;;;;1.80;1.08;;;;;;;24.27;48.27;98838.78;5107270;28;20047;-64
2022/06/01 09:24:42;;;;;;;2.03;1.10;;;;;;;24.19;48.06;98826.31;5102141;28;20036;-64
2022/06/01 09:27:41;;;;;;;1.92;0.70;;;;;;;23.80;47.94;98833.75;5094586;28;20289;-63
2022/06/01 09:30:41;;;;;;;2.28;1.10;;;;;;;24.24;47.93;98835.44;5109637;28;20043;-65
2022/06/01 09:33:27;;;;;;;1.67;1.10;;;;;;;24.34;47.14;98834.28;5113810;28;20046;-65
2022/06/01 09:36:26;;;;;;;2.90;0.88;;;;;;;25.19;45.32;98835.25;5105149;28;20043;-66
2022/06/01 09:39:18;;;;;;;1.15;0.80;;;;;;;24.74;43.57;98833.75;5086351;28;20460;-65
2022/06/01 09:42:15;;;;;;;2.40;0.82;;;;;;;25.62;44.23;98834.19;5097078;28;20092;-66
2022/06/01 09:45:02;;;;;;;2.28;1.15;;;;;;;25.61;42.84;98832.50;5110366;28;20038;-59
2022/06/01 09:47:50;;;;;;;3.00;0.93;;;;;;;25.92;41.75;98836.50;5106062;28;20047;-60
2022/06/01 09:50:35;;;;;;;1.92;0.70;;;;;;;25.93;42.19;98837.34;5106835;28;20424;-64
2022/06/01 09:53:22;;;;;;;1.77;1.10;;;;;;;24.86;41.60;98839.38;5111043;28;20392;-63
2022/06/01 09:56:07;;;;;;;1.48;0.85;;;;;;;25.55;41.63;98839.50;5112341;28;20043;-64
2022/06/01 10:08:42;;;;;;;1.85;0.80;;;;;;;26.22;40.22;98832.59;5103296;28;20040;-65
2022/06/01 10:11:43;;;;;;;7.53;1.30;;;;;;;26.63;40.15;98833.44;5106105;28;20042;-62
2022/06/01 10:14:35;;;;;;;1.75;0.73;;;;;;;27.08;38.39;98823.03;5108063;28;20047;-64
2022/06/01 10:17:40;;;;;;;4.35;1.42;;;;;;;27.17;39.15;98829.81;5111284;28;20046;-58
2022/06/01 10:20:35;;;;;;;2.95;0.85;;;;;;;27.74;38.09;98823.75;5103029;28;20055;-59
2022/06/01 10:23:48;;;;;;;1.83;1.13;;;;;;;27.59;37.50;98828.56;5107070;28;20059;-58
2022/06/01 10:26:38;;;;;;;2.83;1.00;;;;;;;27.85;36.27;98824.91;5107790;28;20409;-60
2022/06/01 10:29:29;;;;;;;1.30;1.05;;;;;;;27.20;36.44;98841.97;5111615;28;20031;-58
2022/06/01 10:32:23;;;;;;;;;;;;;;;25.53;40.56;98835.34;5110116;28;20534;-60
2022/06/01 10:35:47;;;;;;;3.00;1.00;;;;;;;25.37;41.83;98836.53;5102482;28;19927;-57
2022/06/01 10:38:42;;;;;;;1.10;0.90;;;;;;;26.40;39.58;98832.03;5097731;28;20051;-59
2022/06/01 10:41:51;;;;;;;1.30;0.82;;;;;;;26.52;39.06;98832.19;5094118;28;20032;-58
2022/06/01 10:45:07;;;;;;;2.35;1.25;;;;;;;26.50;39.03;98841.50;5086251;28;20044;-62
2022/06/01 10:47:55;;;;;;;3.15;1.20;;;;;;;26.87;38.64;98843.69;5106055;28;20078;-66
2022/06/01 10:50:59;;;;;;;2.35;0.90;;;;;;;26.60;37.90;98833.88;5107666;28;20126;-64
2022/06/01 10:53:59;;;;;;;3.08;1.10;;;;;;;27.00;36.50;98840.16;5098529;28;20036;-63
2022/06/01 10:56:44;;;;;;;1.42;1.10;;;;;;;26.88;37.30;98832.75;5099346;28;20062;-63
2022/06/01 10:59:29;;;;;;;1.48;1.10;;;;;;;27.66;36.11;98827.47;5102933;28;20403;-64
2022/06/01 11:02:36;;;;;;;2.25;1.00;;;;;;;26.53;38.00;98839.25;5107619;28;20042;-62
2022/06/01 11:05:33;;;;;;;2.03;0.80;;;;;;;27.95;37.05;98823.59;5105413;28;20079;-65
2022/06/01 11:08:21;;;;;;;3.00;0.90;;;;;;;28.36;36.27;98824.13;5108002;28;20047;-67
2022/06/01 11:11:35;;;;;;;1.27;0.98;;;;;;;28.78;35.09;98821.66;5103958;28;20066;-65
2022/06/01 11:15:01;;;;;;;2.88;1.05;;;;;;;27.55;36.04;98826.31;5104995;28;20051;-68
2022/06/01 11:17:53;;;;;;;6.28;1.40;;;;;;;27.91;35.45;98833.97;5107738;28;20044;-64
2022/06/01 11:20:51;;;;;;;2.30;1.10;;;;;;;28.88;34.46;98820.28;5104187;28;20157;-69
2022/06/01 11:24:05;;;;;;;1.05;0.80;;;;;;;28.80;33.21;98823.28;5103954;28;20031;-59
2022/06/01 11:27:17;;;;;;;2.97;0.93;;;;;;;30.17;32.63;98811.31;5102964;28;20044;-60
2022/06/01 11:30:19;;;;;;;1.73;0.90;;;;;;;27.78;35.95;98822.25;5103922;28;20035;-59
2022/06/01 11:33:15;;;;;;;2.70;0.98;;;;;;;28.03;32.66;98810.72;5108214;28;20126;-59
2022/06/01 11:36:12;;;;;;;2.00;0.70;;;;;;;29.02;34.29;98807.50;5106365;28;20046;-61
2022/06/01 11:39:20;;;;;;;2.45;0.70;;;;;;;29.66;35.49;98808.97;5105832;28;20084;-59
2022/06/01 11:42:18;;;;;;;1.88;0.82;;;;;;;29.83;34.29;98798.38;5100537;28;20044;-63
2022/06/01 11:45:19;;;;;;;2.10;0.80;;;;;;;27.86;30.53;98805.03;5104482;28;20044;-71
2022/06/01 11:48:08;;;;;;;0.88;0.52;;;;;;;27.72;31.70;98804.31;5103898;28;20047;-67
2022/06/01 11:50:55;;;;;;;1.58;0.90;;;;;;;28.20;30.89;98804.78;5110976;28;20044;-66
2022/06/01 11:54:10;;;;;;;1.75;0.82;;;;;;;29.33;29.10;98788.69;5115590;28;20063;-68
2022/06/01 11:57:01;;;;;;;2.92;0.95;;;;;;;28.78;29.52;98805.47;5113011;28;20061;-74
2022/06/01 11:59:52;;;;;;;3.05;0.70;;;;;;;28.99;32.14;98797.19;5114044;28;20043;-68
2022/06/01 12:02:41;;;;;;;;;;;;;;;29.26;31.45;98784.19;5097211;28;20051;-64
2022/06/01 12:05:39;;;;;;;1.92;0.68;;;;;;;29.43;28.81;98785.44;5111274;28;19922;-63
2022/06/01 12:08:39;;;;;;;0.90;0.50;;;;;;;28.65;29.53;98786.75;5107964;28;20040;-62
2022/06/01 12:11:39;;;;;;;1.17;0.55;;;;;;;29.31;28.44;98791.63;5107952;28;20475;-64
2022/06/01 12:14:33;;;;;;;2.50;0.55;;;;;;;29.21;27.90;98794.03;5104482;28;20027;-64
2022/06/01 12:17:18;;;;;;;0.90;0.52;;;;;;;30.66;25.81;98782.41;5108632;28;20035;-62
2022/06/01 12:20:11;;;;;;;0.88;0.60;;;;;;;30.26;26.68;98774.00;5106271;28;20398;-66
2022/06/01 12:29:50;;;;;;;1.30;0.73;;;;;;;29.09;26.76;98759.75;5123606;27;20050;-64
2022/06/01 12:32:58;;;;;;;1.13;0.52;;;;;;;28.58;27.62;98759.09;5107352;28;20284;-63
2022/06/01 12:35:47;;;;;;;1.38;0.70;;;;;;;29.18;27.91;98752.16;5098867;28;20027;-65
2022/06/01 12:38:38;;;;;;;1.03;0.60;;;;;;;29.77;26.65;98742.59;5101117;28;20047;-65
2022/06/01 12:41:27;;;;;;;1.17;0.60;;;;;;;30.48;27.35;98746.38;5107049;28;20405;-62
2022/06/01 12:44:12;;;;;;;2.53;0.65;;;;;;;31.45;25.33;98740.44;5092540;28;20100;-64
2022/06/01 12:46:58;;;;;;;0.88;0.57;;;;;;;31.62;26.14;98725.28;5101193;28;20331;-64
2022/06/01 12:49:45;;;;;;;1.25;0.68;;;;;;;30.43;26.84;98736.31;5107595;28;20139;-64
2022/06/01 12:52:31;;;;;;;0.90;0.60;;;;;;;29.92;26.11;98744.03;5102743;28;20465;-62
2022/06/01 12:55:22;;;;;;;0.85;0.43;;;;;;;29.86;26.15;98740.38;5103060;28;20051;-62
2022/06/01 12:58:28;;;;;;;0.77;0.60;;;;;;;30.56;26.50;98737.09;5102402;28;20435;-64
2022/06/01 13:01:15;;;;;;;3.17;0.57;;;;;;;30.71;25.65;98733.88;5098373;28;20038;-64
2022/06/01 13:04:01;;;;;;;0.73;0.60;;;;;;;30.96;26.17;98719.28;5108161;28;20085;-63
2022/06/01 13:06:45;;;;;;;0.98;0.60;;;;;;;30.42;26.11;98721.16;5100417;28;20105;-64
2022/06/01 13:09:33;;;;;;;1.45;0.70;;;;;;;30.68;26.44;98719.00;5107185;28;20084;-67
2022/06/01 13:12:18;;;;;;;1.05;0.50;;;;;;;30.72;26.02;98720.13;5107197;28;20070;-63
2022/06/01 13:15:26;;;;;;;0.40;0.40;;;;;;;30.36;25.70;98714.81;5105303;28;20131;-63
2022/06/01 13:18:20;;;;;;;0.82;0.55;;;;;;;29.55;26.70;98712.63;5103890;28;20036;-64
2022/06/01 13:21:09;;;;;;;2.22;0.40;;;;;;;29.05;26.06;98720.00;5094766;28;20043;-63
2022/06/01 13:24:07;;;;;;;1.92;0.40;;;;;;;28.90;25.68;98711.22;5109054;28;20437;-67
2022/06/01 13:26:54;;;;;;;0.68;0.43;;;;;;;30.04;24.78;98711.63;5108521;28;20028;-64
2022/06/01 13:29:44;;;;;;;1.52;0.40;;;;;;;29.55;24.70;98713.44;5105782;28;20053;-64
2022/06/01 13:32:32;;;;;;;0.90;0.50;;;;;;;29.30;25.47;98706.34;5103850;28;20031;-65
2022/06/01 13:35:32;;;;;;;2.25;0.50;;;;;;;29.65;25.37;98702.13;5113001;28;20075;-64
2022/06/01 13:38:30;;;;;;;1.70;0.47;;;;;;;30.02;25.40;98701.06;5098812;28;20032;-65
2022/06/01 13:41:22;;;;;;;0.70;0.45;;;;;;;29.61;26.43;98700.94;5096716;28;20039;-65
2022/06/01 13:44:13;;;;;;;0.85;0.47;;;;;;;28.87;24.80;98706.28;5097731;28;20043;-67
2022/06/01 13:47:01;;;;;;;0.70;0.38;;;;;;;28.61;25.52;98692.09;5098301;28;20549;-65
2022/06/01 13:49:48;;;;;;;1.17;0.50;;;;;;;28.33;25.85;98696.16;5100149;28;20067;-66
2022/06/01 13:52:32;;;;;;;2.17;0.40;;;;;;;27.21;26.00;98690.44;5104291;28;20051;-65